sensor_id;sensor_type;location;lat;lon;timestamp;P1;durP1;ratioP1;P2;durP2;ratioP2
37205;SDS011;23099;42.636;23.198;2023-06-26T00:00:28;29.92;;;19.33;;
37205;SDS011;23099;42.636;23.198;2023-06-26T00:02:55;26.55;;;18.98;;
37205;SDS011;23099;42.636;23.198;2023-06-26T00:05:21;27.33;;;18.58;;
37205;SDS011;23099;42.636;23.198;2023-06-26T00:07:48;28.27;;;17.88;;
37205;SDS011;23099;42.636;23.198;2023-06-26T00:10:15;29.85;;;17.73;;
37205;SDS011;23099;42.636;23.198;2023-06-26T00:12:43;24.67;;;18.02;;
37205;SDS011;23099;42.636;23.198;2023-06-26T00:15:10;31.00;;;17.65;;
37205;SDS011;23099;42.636;23.198;2023-06-26T00:17:37;22.73;;;16.52;;
37205;SDS011;23099;42.636;23.198;2023-06-26T00:20:04;25.02;;;17.33;;
37205;SDS011;23099;42.636;23.198;2023-06-26T00:22:31;24.73;;;18.05;;
37205;SDS011;23099;42.636;23.198;2023-06-26T00:24:58;24.38;;;16.50;;
37205;SDS011;23099;42.636;23.198;2023-06-26T00:27:26;22.42;;;16.63;;
37205;SDS011;23099;42.636;23.198;2023-06-26T00:29:54;24.33;;;16.63;;
37205;SDS011;23099;42.636;23.198;2023-06-26T00:32:20;21.55;;;16.45;;
37205;SDS011;23099;42.636;23.198;2023-06-26T00:34:47;22.65;;;16.48;;
37205;SDS011;23099;42.636;23.198;2023-06-26T00:37:14;22.90;;;16.42;;
37205;SDS011;23099;42.636;23.198;2023-06-26T00:39:40;23.15;;;15.43;;
37205;SDS011;23099;42.636;23.198;2023-06-26T00:42:07;23.65;;;16.33;;
37205;SDS011;23099;42.636;23.198;2023-06-26T00:44:34;24.08;;;15.30;;
37205;SDS011;23099;42.636;23.198;2023-06-26T00:47:02;24.50;;;15.77;;
37205;SDS011;23099;42.636;23.198;2023-06-26T00:49:29;22.17;;;15.02;;
37205;SDS011;23099;42.636;23.198;2023-06-26T00:51:55;24.02;;;15.82;;
37205;SDS011;23099;42.636;23.198;2023-06-26T00:54:22;23.02;;;15.05;;
37205;SDS011;23099;42.636;23.198;2023-06-26T00:56:49;21.85;;;15.13;;
37205;SDS011;23099;42.636;23.198;2023-06-26T00:59:16;22.23;;;15.65;;
37205;SDS011;23099;42.636;23.198;2023-06-26T01:01:43;21.73;;;14.95;;
37205;SDS011;23099;42.636;23.198;2023-06-26T01:04:11;20.25;;;14.52;;
37205;SDS011;23099;42.636;23.198;2023-06-26T01:06:42;21.48;;;14.60;;
37205;SDS011;23099;42.636;23.198;2023-06-26T01:09:14;20.40;;;14.32;;
37205;SDS011;23099;42.636;23.198;2023-06-26T01:11:42;31.08;;;14.82;;
37205;SDS011;23099;42.636;23.198;2023-06-26T01:14:09;19.25;;;12.75;;
37205;SDS011;23099;42.636;23.198;2023-06-26T01:16:36;20.17;;;13.00;;
37205;SDS011;23099;42.636;23.198;2023-06-26T01:19:04;35.80;;;13.77;;
37205;SDS011;23099;42.636;23.198;2023-06-26T01:21:36;22.83;;;13.65;;
37205;SDS011;23099;42.636;23.198;2023-06-26T01:24:07;18.85;;;13.95;;
37205;SDS011;23099;42.636;23.198;2023-06-26T01:26:41;22.77;;;13.38;;
37205;SDS011;23099;42.636;23.198;2023-06-26T01:29:10;19.63;;;13.30;;
37205;SDS011;23099;42.636;23.198;2023-06-26T01:31:39;21.13;;;12.93;;
37205;SDS011;23099;42.636;23.198;2023-06-26T01:34:06;23.75;;;13.98;;
37205;SDS011;23099;42.636;23.198;2023-06-26T01:36:33;23.05;;;14.40;;
37205;SDS011;23099;42.636;23.198;2023-06-26T01:39:00;20.48;;;13.50;;
37205;SDS011;23099;42.636;23.198;2023-06-26T01:41:27;22.65;;;13.82;;
37205;SDS011;23099;42.636;23.198;2023-06-26T01:44:03;23.23;;;14.15;;
37205;SDS011;23099;42.636;23.198;2023-06-26T01:49:12;22.88;;;13.38;;
37205;SDS011;23099;42.636;23.198;2023-06-26T01:51:47;19.75;;;13.65;;
37205;SDS011;23099;42.636;23.198;2023-06-26T01:54:21;18.48;;;12.55;;
37205;SDS011;23099;42.636;23.198;2023-06-26T01:56:50;22.67;;;13.63;;
37205;SDS011;23099;42.636;23.198;2023-06-26T01:59:21;21.38;;;13.75;;
37205;SDS011;23099;42.636;23.198;2023-06-26T02:01:48;23.60;;;13.32;;
37205;SDS011;23099;42.636;23.198;2023-06-26T02:04:15;20.77;;;14.23;;
37205;SDS011;23099;42.636;23.198;2023-06-26T02:06:42;22.00;;;14.30;;
37205;SDS011;23099;42.636;23.198;2023-06-26T02:09:08;20.85;;;14.05;;
37205;SDS011;23099;42.636;23.198;2023-06-26T02:11:35;20.98;;;13.40;;
37205;SDS011;23099;42.636;23.198;2023-06-26T02:14:02;21.25;;;12.73;;
37205;SDS011;23099;42.636;23.198;2023-06-26T02:16:30;19.02;;;12.88;;
37205;SDS011;23099;42.636;23.198;2023-06-26T02:18:57;23.63;;;16.77;;
37205;SDS011;23099;42.636;23.198;2023-06-26T02:21:23;23.98;;;15.23;;
37205;SDS011;23099;42.636;23.198;2023-06-26T02:23:50;24.60;;;16.88;;
37205;SDS011;23099;42.636;23.198;2023-06-26T02:26:17;26.10;;;18.02;;
37205;SDS011;23099;42.636;23.198;2023-06-26T02:28:44;25.38;;;18.17;;
37205;SDS011;23099;42.636;23.198;2023-06-26T02:31:10;24.05;;;17.55;;
37205;SDS011;23099;42.636;23.198;2023-06-26T02:33:38;24.00;;;16.27;;
37205;SDS011;23099;42.636;23.198;2023-06-26T02:36:05;23.48;;;17.15;;
37205;SDS011;23099;42.636;23.198;2023-06-26T02:38:32;22.02;;;17.02;;
37205;SDS011;23099;42.636;23.198;2023-06-26T02:40:59;21.27;;;15.57;;
37205;SDS011;23099;42.636;23.198;2023-06-26T02:43:25;24.80;;;18.02;;
37205;SDS011;23099;42.636;23.198;2023-06-26T02:45:52;23.80;;;17.10;;
37205;SDS011;23099;42.636;23.198;2023-06-26T02:48:20;24.98;;;18.00;;
37205;SDS011;23099;42.636;23.198;2023-06-26T02:50:48;21.70;;;16.52;;
37205;SDS011;23099;42.636;23.198;2023-06-26T02:53:14;26.15;;;19.35;;
37205;SDS011;23099;42.636;23.198;2023-06-26T02:55:41;24.45;;;18.45;;
37205;SDS011;23099;42.636;23.198;2023-06-26T02:58:08;24.90;;;19.33;;
37205;SDS011;23099;42.636;23.198;2023-06-26T03:00:34;25.15;;;20.38;;
37205;SDS011;23099;42.636;23.198;2023-06-26T03:03:06;24.88;;;18.60;;
37205;SDS011;23099;42.636;23.198;2023-06-26T03:05:33;26.90;;;19.52;;
37205;SDS011;23099;42.636;23.198;2023-06-26T03:08:01;24.30;;;17.90;;
37205;SDS011;23099;42.636;23.198;2023-06-26T03:10:28;25.17;;;18.83;;
37205;SDS011;23099;42.636;23.198;2023-06-26T03:12:55;27.30;;;18.70;;
37205;SDS011;23099;42.636;23.198;2023-06-26T03:15:21;26.23;;;19.45;;
37205;SDS011;23099;42.636;23.198;2023-06-26T03:17:48;23.88;;;18.40;;
37205;SDS011;23099;42.636;23.198;2023-06-26T03:20:15;26.50;;;17.63;;
37205;SDS011;23099;42.636;23.198;2023-06-26T03:22:42;26.67;;;18.92;;
37205;SDS011;23099;42.636;23.198;2023-06-26T03:25:10;26.30;;;19.50;;
37205;SDS011;23099;42.636;23.198;2023-06-26T03:27:36;25.55;;;19.42;;
37205;SDS011;23099;42.636;23.198;2023-06-26T03:30:03;28.08;;;19.17;;
37205;SDS011;23099;42.636;23.198;2023-06-26T03:32:31;24.92;;;19.70;;
37205;SDS011;23099;42.636;23.198;2023-06-26T03:34:58;25.27;;;18.92;;
37205;SDS011;23099;42.636;23.198;2023-06-26T03:37:26;24.75;;;19.05;;
37205;SDS011;23099;42.636;23.198;2023-06-26T03:39:52;25.70;;;20.02;;
37205;SDS011;23099;42.636;23.198;2023-06-26T03:42:20;28.15;;;19.52;;
37205;SDS011;23099;42.636;23.198;2023-06-26T03:44:47;22.67;;;18.13;;
37205;SDS011;23099;42.636;23.198;2023-06-26T03:47:14;23.77;;;18.13;;
37205;SDS011;23099;42.636;23.198;2023-06-26T03:49:40;24.75;;;20.33;;
37205;SDS011;23099;42.636;23.198;2023-06-26T03:52:07;27.00;;;18.73;;
37205;SDS011;23099;42.636;23.198;2023-06-26T03:54:34;27.00;;;19.55;;
37205;SDS011;23099;42.636;23.198;2023-06-26T03:57:00;25.40;;;18.15;;
37205;SDS011;23099;42.636;23.198;2023-06-26T03:59:28;24.95;;;18.98;;
37205;SDS011;23099;42.636;23.198;2023-06-26T04:01:55;24.27;;;17.30;;
37205;SDS011;23099;42.636;23.198;2023-06-26T04:04:21;22.85;;;17.83;;
37205;SDS011;23099;42.636;23.198;2023-06-26T04:06:48;24.65;;;18.15;;
37205;SDS011;23099;42.636;23.198;2023-06-26T04:09:15;26.20;;;18.27;;
37205;SDS011;23099;42.636;23.198;2023-06-26T04:11:43;26.48;;;19.05;;
37205;SDS011;23099;42.636;23.198;2023-06-26T04:14:10;26.55;;;18.65;;
37205;SDS011;23099;42.636;23.198;2023-06-26T04:16:39;24.92;;;17.63;;
37205;SDS011;23099;42.636;23.198;2023-06-26T04:19:05;26.00;;;18.92;;
37205;SDS011;23099;42.636;23.198;2023-06-26T04:21:33;26.33;;;19.27;;
37205;SDS011;23099;42.636;23.198;2023-06-26T04:23:59;25.55;;;18.50;;
37205;SDS011;23099;42.636;23.198;2023-06-26T04:26:26;25.80;;;17.92;;
37205;SDS011;23099;42.636;23.198;2023-06-26T04:28:53;22.55;;;16.65;;
37205;SDS011;23099;42.636;23.198;2023-06-26T04:31:19;25.38;;;17.35;;
37205;SDS011;23099;42.636;23.198;2023-06-26T04:33:48;24.33;;;17.23;;
37205;SDS011;23099;42.636;23.198;2023-06-26T04:36:16;24.45;;;17.58;;
37205;SDS011;23099;42.636;23.198;2023-06-26T04:38:43;25.50;;;17.67;;
37205;SDS011;23099;42.636;23.198;2023-06-26T04:41:10;26.00;;;18.02;;
37205;SDS011;23099;42.636;23.198;2023-06-26T04:43:36;24.10;;;17.58;;
37205;SDS011;23099;42.636;23.198;2023-06-26T04:46:03;26.98;;;18.85;;
37205;SDS011;23099;42.636;23.198;2023-06-26T04:48:30;22.80;;;17.02;;
37205;SDS011;23099;42.636;23.198;2023-06-26T04:50:58;23.27;;;17.45;;
37205;SDS011;23099;42.636;23.198;2023-06-26T04:53:25;23.13;;;17.83;;
37205;SDS011;23099;42.636;23.198;2023-06-26T04:55:52;24.60;;;18.73;;
37205;SDS011;23099;42.636;23.198;2023-06-26T04:58:19;23.45;;;17.55;;
37205;SDS011;23099;42.636;23.198;2023-06-26T05:00:46;25.05;;;17.55;;
37205;SDS011;23099;42.636;23.198;2023-06-26T05:03:13;24.33;;;17.73;;
37205;SDS011;23099;42.636;23.198;2023-06-26T05:05:42;24.73;;;17.52;;
37205;SDS011;23099;42.636;23.198;2023-06-26T05:08:16;24.05;;;18.00;;
37205;SDS011;23099;42.636;23.198;2023-06-26T05:10:43;25.33;;;19.30;;
37205;SDS011;23099;42.636;23.198;2023-06-26T05:13:10;23.88;;;18.50;;
37205;SDS011;23099;42.636;23.198;2023-06-26T05:15:40;24.60;;;17.90;;
37205;SDS011;23099;42.636;23.198;2023-06-26T05:18:06;25.20;;;17.95;;
37205;SDS011;23099;42.636;23.198;2023-06-26T05:20:33;21.77;;;16.77;;
37205;SDS011;23099;42.636;23.198;2023-06-26T05:23:01;21.10;;;16.33;;
37205;SDS011;23099;42.636;23.198;2023-06-26T05:25:29;22.75;;;17.05;;
37205;SDS011;23099;42.636;23.198;2023-06-26T05:27:57;28.42;;;17.85;;
37205;SDS011;23099;42.636;23.198;2023-06-26T05:30:24;25.15;;;17.88;;
37205;SDS011;23099;42.636;23.198;2023-06-26T05:35:19;23.52;;;15.50;;
37205;SDS011;23099;42.636;23.198;2023-06-26T05:37:47;20.50;;;16.92;;
37205;SDS011;23099;42.636;23.198;2023-06-26T05:40:15;25.25;;;16.33;;
37205;SDS011;23099;42.636;23.198;2023-06-26T05:42:44;24.73;;;16.08;;
37205;SDS011;23099;42.636;23.198;2023-06-26T05:45:11;20.38;;;15.85;;
37205;SDS011;23099;42.636;23.198;2023-06-26T05:47:38;21.60;;;16.40;;
37205;SDS011;23099;42.636;23.198;2023-06-26T05:50:06;23.65;;;17.50;;
37205;SDS011;23099;42.636;23.198;2023-06-26T05:52:34;21.70;;;15.70;;
37205;SDS011;23099;42.636;23.198;2023-06-26T05:55:02;18.52;;;14.25;;
37205;SDS011;23099;42.636;23.198;2023-06-26T05:57:29;20.50;;;15.05;;
37205;SDS011;23099;42.636;23.198;2023-06-26T05:59:58;19.67;;;14.83;;
37205;SDS011;23099;42.636;23.198;2023-06-26T06:04:51;23.38;;;16.30;;
37205;SDS011;23099;42.636;23.198;2023-06-26T06:07:18;20.60;;;15.15;;
37205;SDS011;23099;42.636;23.198;2023-06-26T06:09:44;24.95;;;16.08;;
37205;SDS011;23099;42.636;23.198;2023-06-26T06:12:11;21.00;;;14.95;;
37205;SDS011;23099;42.636;23.198;2023-06-26T06:14:38;18.80;;;14.50;;
37205;SDS011;23099;42.636;23.198;2023-06-26T06:17:06;22.27;;;16.08;;
37205;SDS011;23099;42.636;23.198;2023-06-26T06:19:32;18.58;;;14.57;;
37205;SDS011;23099;42.636;23.198;2023-06-26T06:21:59;20.63;;;14.57;;
37205;SDS011;23099;42.636;23.198;2023-06-26T06:24:26;21.40;;;14.38;;
37205;SDS011;23099;42.636;23.198;2023-06-26T06:26:52;16.65;;;12.95;;
37205;SDS011;23099;42.636;23.198;2023-06-26T06:29:19;18.00;;;13.70;;
37205;SDS011;23099;42.636;23.198;2023-06-26T06:31:46;19.85;;;14.02;;
37205;SDS011;23099;42.636;23.198;2023-06-26T06:34:14;16.88;;;13.52;;
37205;SDS011;23099;42.636;23.198;2023-06-26T06:36:40;17.35;;;13.30;;
37205;SDS011;23099;42.636;23.198;2023-06-26T06:39:07;17.95;;;12.32;;
37205;SDS011;23099;42.636;23.198;2023-06-26T06:41:34;16.77;;;12.70;;
37205;SDS011;23099;42.636;23.198;2023-06-26T06:44:01;15.73;;;12.52;;
37205;SDS011;23099;42.636;23.198;2023-06-26T06:46:27;17.60;;;13.75;;
37205;SDS011;23099;42.636;23.198;2023-06-26T06:48:54;20.00;;;14.00;;
37205;SDS011;23099;42.636;23.198;2023-06-26T06:51:23;18.80;;;14.10;;
37205;SDS011;23099;42.636;23.198;2023-06-26T06:53:49;16.63;;;13.82;;
37205;SDS011;23099;42.636;23.198;2023-06-26T06:56:16;19.25;;;13.35;;
37205;SDS011;23099;42.636;23.198;2023-06-26T06:58:42;21.25;;;14.65;;
37205;SDS011;23099;42.636;23.198;2023-06-26T07:03:37;19.05;;;12.38;;
37205;SDS011;23099;42.636;23.198;2023-06-26T07:06:04;15.13;;;11.50;;
37205;SDS011;23099;42.636;23.198;2023-06-26T07:08:32;16.10;;;11.48;;
37205;SDS011;23099;42.636;23.198;2023-06-26T07:10:59;18.20;;;11.82;;
37205;SDS011;23099;42.636;23.198;2023-06-26T07:13:26;15.73;;;12.33;;
37205;SDS011;23099;42.636;23.198;2023-06-26T07:15:53;14.80;;;11.95;;
37205;SDS011;23099;42.636;23.198;2023-06-26T07:18:20;15.68;;;12.35;;
37205;SDS011;23099;42.636;23.198;2023-06-26T07:20:46;16.65;;;11.38;;
37205;SDS011;23099;42.636;23.198;2023-06-26T07:23:13;18.08;;;11.20;;
37205;SDS011;23099;42.636;23.198;2023-06-26T07:25:41;14.77;;;10.93;;
37205;SDS011;23099;42.636;23.198;2023-06-26T07:28:09;16.17;;;10.25;;
37205;SDS011;23099;42.636;23.198;2023-06-26T07:30:37;13.05;;;10.30;;
37205;SDS011;23099;42.636;23.198;2023-06-26T07:33:03;16.10;;;10.73;;
37205;SDS011;23099;42.636;23.198;2023-06-26T07:35:30;16.73;;;11.90;;
37205;SDS011;23099;42.636;23.198;2023-06-26T07:37:57;15.25;;;10.35;;
37205;SDS011;23099;42.636;23.198;2023-06-26T07:40:23;15.40;;;10.40;;
37205;SDS011;23099;42.636;23.198;2023-06-26T07:42:51;17.05;;;9.82;;
37205;SDS011;23099;42.636;23.198;2023-06-26T07:45:19;11.70;;;7.20;;
37205;SDS011;23099;42.636;23.198;2023-06-26T07:47:46;12.75;;;8.23;;
37205;SDS011;23099;42.636;23.198;2023-06-26T07:50:13;11.35;;;8.93;;
37205;SDS011;23099;42.636;23.198;2023-06-26T07:52:44;14.77;;;8.98;;
37205;SDS011;23099;42.636;23.198;2023-06-26T07:55:11;13.40;;;9.43;;
37205;SDS011;23099;42.636;23.198;2023-06-26T07:57:37;12.20;;;8.90;;
37205;SDS011;23099;42.636;23.198;2023-06-26T08:00:06;10.80;;;7.70;;
37205;SDS011;23099;42.636;23.198;2023-06-26T08:02:34;11.10;;;8.20;;
37205;SDS011;23099;42.636;23.198;2023-06-26T08:05:00;11.75;;;8.35;;
37205;SDS011;23099;42.636;23.198;2023-06-26T08:07:27;11.35;;;8.30;;
37205;SDS011;23099;42.636;23.198;2023-06-26T08:09:54;13.20;;;8.63;;
37205;SDS011;23099;42.636;23.198;2023-06-26T08:12:20;11.80;;;8.07;;
37205;SDS011;23099;42.636;23.198;2023-06-26T08:14:47;11.02;;;7.13;;
37205;SDS011;23099;42.636;23.198;2023-06-26T08:17:15;10.25;;;6.45;;
37205;SDS011;23099;42.636;23.198;2023-06-26T08:19:42;10.73;;;6.60;;
37205;SDS011;23099;42.636;23.198;2023-06-26T08:22:08;11.02;;;6.75;;
37205;SDS011;23099;42.636;23.198;2023-06-26T08:24:35;11.15;;;7.20;;
37205;SDS011;23099;42.636;23.198;2023-06-26T08:27:02;11.45;;;7.30;;
37205;SDS011;23099;42.636;23.198;2023-06-26T08:29:29;11.90;;;6.78;;
37205;SDS011;23099;42.636;23.198;2023-06-26T08:31:56;10.55;;;6.70;;
37205;SDS011;23099;42.636;23.198;2023-06-26T08:34:24;12.20;;;6.80;;
37205;SDS011;23099;42.636;23.198;2023-06-26T08:39:18;12.07;;;6.28;;
37205;SDS011;23099;42.636;23.198;2023-06-26T08:41:45;8.90;;;5.53;;
37205;SDS011;23099;42.636;23.198;2023-06-26T08:44:11;8.10;;;5.05;;
37205;SDS011;23099;42.636;23.198;2023-06-26T08:46:38;9.20;;;4.78;;
37205;SDS011;23099;42.636;23.198;2023-06-26T08:49:08;9.95;;;5.88;;
37205;SDS011;23099;42.636;23.198;2023-06-26T08:51:42;7.30;;;4.75;;
37205;SDS011;23099;42.636;23.198;2023-06-26T08:54:15;8.35;;;5.05;;
37205;SDS011;23099;42.636;23.198;2023-06-26T08:56:48;9.25;;;4.75;;
37205;SDS011;23099;42.636;23.198;2023-06-26T08:59:16;7.80;;;5.20;;
37205;SDS011;23099;42.636;23.198;2023-06-26T09:01:43;8.18;;;3.95;;
37205;SDS011;23099;42.636;23.198;2023-06-26T09:04:10;9.55;;;4.32;;
37205;SDS011;23099;42.636;23.198;2023-06-26T09:06:37;10.75;;;4.47;;
37205;SDS011;23099;42.636;23.198;2023-06-26T09:09:05;8.15;;;4.25;;
37205;SDS011;23099;42.636;23.198;2023-06-26T09:13:59;8.68;;;3.80;;
37205;SDS011;23099;42.636;23.198;2023-06-26T09:16:26;7.43;;;3.90;;
37205;SDS011;23099;42.636;23.198;2023-06-26T09:18:53;8.43;;;4.88;;
37205;SDS011;23099;42.636;23.198;2023-06-26T09:21:22;8.57;;;4.57;;
37205;SDS011;23099;42.636;23.198;2023-06-26T09:23:50;8.67;;;4.67;;
37205;SDS011;23099;42.636;23.198;2023-06-26T09:26:18;9.95;;;4.82;;
37205;SDS011;23099;42.636;23.198;2023-06-26T09:31:12;8.07;;;4.70;;
37205;SDS011;23099;42.636;23.198;2023-06-26T09:33:38;6.07;;;3.72;;
37205;SDS011;23099;42.636;23.198;2023-06-26T09:36:08;8.23;;;5.18;;
37205;SDS011;23099;42.636;23.198;2023-06-26T09:38:35;10.23;;;5.65;;
37205;SDS011;23099;42.636;23.198;2023-06-26T09:41:02;7.85;;;4.82;;
37205;SDS011;23099;42.636;23.198;2023-06-26T09:43:31;9.27;;;5.53;;
37205;SDS011;23099;42.636;23.198;2023-06-26T09:48:24;10.50;;;5.80;;
37205;SDS011;23099;42.636;23.198;2023-06-26T09:50:51;8.57;;;5.57;;
37205;SDS011;23099;42.636;23.198;2023-06-26T09:55:46;7.72;;;4.30;;
37205;SDS011;23099;42.636;23.198;2023-06-26T09:58:13;9.30;;;4.43;;
37205;SDS011;23099;42.636;23.198;2023-06-26T10:00:41;10.30;;;4.80;;
37205;SDS011;23099;42.636;23.198;2023-06-26T10:03:09;8.63;;;5.00;;
37205;SDS011;23099;42.636;23.198;2023-06-26T10:05:37;9.23;;;4.45;;
37205;SDS011;23099;42.636;23.198;2023-06-26T10:08:04;7.50;;;4.50;;
37205;SDS011;23099;42.636;23.198;2023-06-26T10:10:33;9.45;;;4.72;;
37205;SDS011;23099;42.636;23.198;2023-06-26T10:13:04;7.97;;;4.80;;
37205;SDS011;23099;42.636;23.198;2023-06-26T10:15:39;7.68;;;4.25;;
37205;SDS011;23099;42.636;23.198;2023-06-26T10:18:10;8.85;;;5.50;;
37205;SDS011;23099;42.636;23.198;2023-06-26T10:20:39;8.65;;;4.80;;
37205;SDS011;23099;42.636;23.198;2023-06-26T10:25:34;8.57;;;5.10;;
37205;SDS011;23099;42.636;23.198;2023-06-26T10:28:07;7.72;;;5.18;;
37205;SDS011;23099;42.636;23.198;2023-06-26T10:30:35;8.75;;;5.40;;
37205;SDS011;23099;42.636;23.198;2023-06-26T10:33:04;9.23;;;4.47;;
37205;SDS011;23099;42.636;23.198;2023-06-26T10:35:32;9.65;;;4.72;;
37205;SDS011;23099;42.636;23.198;2023-06-26T10:38:02;9.10;;;5.30;;
37205;SDS011;23099;42.636;23.198;2023-06-26T10:40:39;8.55;;;4.85;;
37205;SDS011;23099;42.636;23.198;2023-06-26T10:43:07;8.00;;;4.68;;
37205;SDS011;23099;42.636;23.198;2023-06-26T10:45:35;8.77;;;4.65;;
37205;SDS011;23099;42.636;23.198;2023-06-26T10:48:02;8.05;;;4.47;;
37205;SDS011;23099;42.636;23.198;2023-06-26T10:50:31;9.95;;;4.60;;
37205;SDS011;23099;42.636;23.198;2023-06-26T10:53:10;7.40;;;4.15;;
37205;SDS011;23099;42.636;23.198;2023-06-26T10:55:41;8.40;;;4.20;;
37205;SDS011;23099;42.636;23.198;2023-06-26T11:03:49;7.78;;;4.57;;
37205;SDS011;23099;42.636;23.198;2023-06-26T11:06:31;9.15;;;4.38;;
37205;SDS011;23099;42.636;23.198;2023-06-26T11:09:00;9.95;;;4.88;;
37205;SDS011;23099;42.636;23.198;2023-06-26T11:14:24;7.80;;;4.47;;
37205;SDS011;23099;42.636;23.198;2023-06-26T11:16:51;9.50;;;5.88;;
37205;SDS011;23099;42.636;23.198;2023-06-26T11:19:21;8.15;;;4.90;;
37205;SDS011;23099;42.636;23.198;2023-06-26T11:21:49;8.82;;;5.50;;
37205;SDS011;23099;42.636;23.198;2023-06-26T11:24:17;8.27;;;5.47;;
37205;SDS011;23099;42.636;23.198;2023-06-26T11:26:44;13.05;;;5.80;;
37205;SDS011;23099;42.636;23.198;2023-06-26T11:29:11;9.07;;;5.43;;
37205;SDS011;23099;42.636;23.198;2023-06-26T11:31:39;8.48;;;5.68;;
37205;SDS011;23099;42.636;23.198;2023-06-26T11:34:07;9.05;;;5.78;;
37205;SDS011;23099;42.636;23.198;2023-06-26T11:39:04;10.75;;;5.75;;
37205;SDS011;23099;42.636;23.198;2023-06-26T11:41:32;11.05;;;5.70;;
37205;SDS011;23099;42.636;23.198;2023-06-26T11:44:00;9.57;;;5.53;;
37205;SDS011;23099;42.636;23.198;2023-06-26T11:46:27;8.07;;;5.43;;
37205;SDS011;23099;42.636;23.198;2023-06-26T11:48:54;16.23;;;5.25;;
37205;SDS011;23099;42.636;23.198;2023-06-26T11:51:21;11.43;;;6.03;;
37205;SDS011;23099;42.636;23.198;2023-06-26T11:53:49;9.93;;;5.25;;
37205;SDS011;23099;42.636;23.198;2023-06-26T11:56:17;9.50;;;4.80;;
37205;SDS011;23099;42.636;23.198;2023-06-26T11:58:56;8.70;;;4.93;;
37205;SDS011;23099;42.636;23.198;2023-06-26T12:01:25;7.72;;;5.30;;
37205;SDS011;23099;42.636;23.198;2023-06-26T12:03:54;11.15;;;5.32;;
37205;SDS011;23099;42.636;23.198;2023-06-26T12:06:24;7.28;;;4.63;;
37205;SDS011;23099;42.636;23.198;2023-06-26T12:08:51;8.60;;;4.85;;
37205;SDS011;23099;42.636;23.198;2023-06-26T12:11:20;8.68;;;5.38;;
37205;SDS011;23099;42.636;23.198;2023-06-26T12:13:49;7.60;;;4.60;;
37205;SDS011;23099;42.636;23.198;2023-06-26T12:16:16;8.60;;;5.50;;
37205;SDS011;23099;42.636;23.198;2023-06-26T12:18:43;10.75;;;6.13;;
37205;SDS011;23099;42.636;23.198;2023-06-26T12:23:58;8.85;;;5.60;;
37205;SDS011;23099;42.636;23.198;2023-06-26T12:26:26;8.38;;;5.68;;
37205;SDS011;23099;42.636;23.198;2023-06-26T12:28:54;7.15;;;4.22;;
37205;SDS011;23099;42.636;23.198;2023-06-26T12:31:28;9.13;;;5.00;;
37205;SDS011;23099;42.636;23.198;2023-06-26T12:33:55;8.48;;;4.65;;
37205;SDS011;23099;42.636;23.198;2023-06-26T12:36:21;10.25;;;4.95;;
37205;SDS011;23099;42.636;23.198;2023-06-26T12:38:48;7.30;;;4.68;;
37205;SDS011;23099;42.636;23.198;2023-06-26T12:41:15;9.75;;;5.10;;
37205;SDS011;23099;42.636;23.198;2023-06-26T12:43:43;8.68;;;4.65;;
37205;SDS011;23099;42.636;23.198;2023-06-26T12:46:10;6.63;;;4.03;;
37205;SDS011;23099;42.636;23.198;2023-06-26T12:48:37;6.95;;;4.22;;
37205;SDS011;23099;42.636;23.198;2023-06-26T12:51:09;9.15;;;4.60;;
37205;SDS011;23099;42.636;23.198;2023-06-26T12:53:36;11.43;;;5.13;;
37205;SDS011;23099;42.636;23.198;2023-06-26T12:56:04;7.43;;;4.55;;
37205;SDS011;23099;42.636;23.198;2023-06-26T12:58:31;6.70;;;4.00;;
37205;SDS011;23099;42.636;23.198;2023-06-26T13:00:59;6.65;;;4.15;;
37205;SDS011;23099;42.636;23.198;2023-06-26T13:03:26;9.30;;;3.95;;
37205;SDS011;23099;42.636;23.198;2023-06-26T13:05:53;7.45;;;4.15;;
37205;SDS011;23099;42.636;23.198;2023-06-26T13:08:19;6.70;;;3.92;;
37205;SDS011;23099;42.636;23.198;2023-06-26T13:10:46;6.85;;;3.80;;
37205;SDS011;23099;42.636;23.198;2023-06-26T13:13:13;7.47;;;3.70;;
37205;SDS011;23099;42.636;23.198;2023-06-26T13:15:39;6.85;;;4.15;;
37205;SDS011;23099;42.636;23.198;2023-06-26T13:18:07;6.68;;;3.78;;
37205;SDS011;23099;42.636;23.198;2023-06-26T13:23:00;10.55;;;3.35;;
37205;SDS011;23099;42.636;23.198;2023-06-26T13:25:27;6.60;;;3.92;;
37205;SDS011;23099;42.636;23.198;2023-06-26T13:27:54;6.55;;;3.40;;
37205;SDS011;23099;42.636;23.198;2023-06-26T13:30:21;7.25;;;3.78;;
37205;SDS011;23099;42.636;23.198;2023-06-26T13:32:48;9.35;;;4.03;;
37205;SDS011;23099;42.636;23.198;2023-06-26T13:35:16;8.20;;;3.85;;
37205;SDS011;23099;42.636;23.198;2023-06-26T13:37:43;6.70;;;3.97;;
37205;SDS011;23099;42.636;23.198;2023-06-26T13:40:10;7.68;;;4.15;;
37205;SDS011;23099;42.636;23.198;2023-06-26T13:42:37;8.10;;;3.83;;
37205;SDS011;23099;42.636;23.198;2023-06-26T13:45:05;6.35;;;3.95;;
37205;SDS011;23099;42.636;23.198;2023-06-26T13:47:32;6.72;;;3.33;;
37205;SDS011;23099;42.636;23.198;2023-06-26T13:49:59;6.22;;;3.67;;
37205;SDS011;23099;42.636;23.198;2023-06-26T13:52:27;7.13;;;4.00;;
37205;SDS011;23099;42.636;23.198;2023-06-26T13:54:54;7.60;;;3.70;;
37205;SDS011;23099;42.636;23.198;2023-06-26T13:57:21;9.80;;;4.22;;
37205;SDS011;23099;42.636;23.198;2023-06-26T13:59:48;7.32;;;4.35;;
37205;SDS011;23099;42.636;23.198;2023-06-26T14:02:14;9.05;;;4.60;;
37205;SDS011;23099;42.636;23.198;2023-06-26T14:04:41;7.35;;;3.90;;
37205;SDS011;23099;42.636;23.198;2023-06-26T14:07:08;8.50;;;4.35;;
37205;SDS011;23099;42.636;23.198;2023-06-26T14:09:37;7.40;;;4.50;;
37205;SDS011;23099;42.636;23.198;2023-06-26T14:12:04;8.68;;;4.43;;
37205;SDS011;23099;42.636;23.198;2023-06-26T14:16:58;8.13;;;4.60;;
37205;SDS011;23099;42.636;23.198;2023-06-26T14:19:25;9.93;;;4.93;;
37205;SDS011;23099;42.636;23.198;2023-06-26T14:21:52;7.68;;;4.35;;
37205;SDS011;23099;42.636;23.198;2023-06-26T14:24:18;8.18;;;4.93;;
37205;SDS011;23099;42.636;23.198;2023-06-26T14:26:47;8.13;;;4.82;;
37205;SDS011;23099;42.636;23.198;2023-06-26T14:29:13;7.47;;;4.45;;
37205;SDS011;23099;42.636;23.198;2023-06-26T14:31:42;12.70;;;5.00;;
37205;SDS011;23099;42.636;23.198;2023-06-26T14:34:08;8.30;;;4.90;;
37205;SDS011;23099;42.636;23.198;2023-06-26T14:36:35;7.80;;;4.28;;
37205;SDS011;23099;42.636;23.198;2023-06-26T14:39:02;8.60;;;4.97;;
37205;SDS011;23099;42.636;23.198;2023-06-26T14:41:29;7.10;;;3.92;;
37205;SDS011;23099;42.636;23.198;2023-06-26T14:43:57;7.22;;;3.92;;
37205;SDS011;23099;42.636;23.198;2023-06-26T14:46:24;7.78;;;4.72;;
37205;SDS011;23099;42.636;23.198;2023-06-26T14:48:50;7.13;;;4.47;;
37205;SDS011;23099;42.636;23.198;2023-06-26T14:51:17;7.88;;;4.65;;
37205;SDS011;23099;42.636;23.198;2023-06-26T14:53:44;8.27;;;4.40;;
37205;SDS011;23099;42.636;23.198;2023-06-26T14:56:12;10.48;;;4.55;;
37205;SDS011;23099;42.636;23.198;2023-06-26T14:58:39;9.40;;;5.05;;
37205;SDS011;23099;42.636;23.198;2023-06-26T15:01:07;8.52;;;4.63;;
37205;SDS011;23099;42.636;23.198;2023-06-26T15:03:34;8.30;;;4.45;;